Impacts METAR Board
IDs:

KLAS - Las Vegas/McCarran I, NV, US

Updated at: 0200 UTC 23 Sep 2018
Potential Impact None Slight Moderate High
Time 22/14Z 22/15Z 22/16Z 22/17Z 22/18Z 22/19Z 22/20Z 22/21Z 22/22Z 22/23Z 23/00Z 23/01Z 23/02Z
Temp75 80 84 87 89 94 96 98 99 98 98 97 94
Dewpt36 37 38 36 42 39 42 40 39 38 40 38 38
Altim30.00 30.01 30.02 30.03 30.01 29.99 29.96 29.92 29.89 29.86 29.85 29.85 29.84
VIS10 10 10 10 10 10 10 10 10 10 10 10 10
CIG-- -- -- -- -- -- -- -- -- -- -- -- --
CoverCLRCLRCLRFEWFEWFEWFEWFEWFEWFEWFEWFEWFEW
FltCatVFRVFRVFRVFRVFRVFRVFRVFRVFRVFRVFRVFRVFR
WX--------------------------
WDir0000100601102000240250220240
WSpd0 0 3 0 5 6 8 9 3 11 9 8 8
WGst-- -- -- -- -- -- -- 25 -- 15 -- -- --
Raw hourly METARs
KLAS 221356Z 00000KT 10SM CLR 24/02 A3000 RMK AO2 SLP132 T02390022
KLAS 221456Z 00000KT 10SM CLR 27/03 A3001 RMK AO2 SLP135 T02670028 53013
KLAS 221556Z VRB03KT 10SM CLR 29/03 A3002 RMK AO2 SLP138 T02890033
KLAS 221656Z 00000KT 10SM FEW120 31/02 A3003 RMK AO2 SLP139 T03060022
KLAS 221756Z 10005KT 10SM FEW120 32/06 A3001 RMK AO2 SLP135 T03170056 10317 20239 50001
KLAS 221856Z 06006KT 10SM FEW120 34/04 A2999 RMK AO2 SLP126 T03440039
KLAS 221956Z COR 11008KT 10SM FEW120 36/06 A2996 RMK AO2 SLP115 T03560056
KLAS 222056Z 20009G25KT 150V240 10SM FEW120 FEW220 37/04 A2992 RMK AO2 SLP102 T03670044 58029
KLAS 222156Z VRB03KT 10SM FEW120 37/04 A2989 RMK AO2 SLP092 T03720039
KLAS 222256Z 24011G15KT 10SM FEW120 37/03 A2986 RMK AO2 SLP083 T03670033
KLAS 222356Z 25009KT 10SM FEW120 FEW250 37/04 A2985 RMK AO2 SLP079 T03670044 10372 20317 56023
KLAS 230056Z 22008KT 10SM FEW120 FEW250 36/03 A2985 RMK AO2 SLP079 T03610033
KLAS 230156Z 24008KT 10SM FEW120 FEW250 34/03 A2984 RMK AO2 SLP079 T03440033



Page loaded:  02:50 UTC  |   07:50 PM Pacific  |   08:50 PM Mountain  |   09:50 PM Central  |   10:50 PM Eastern

 

ADVISORIES

FORECASTS

FORECASTS

OBSERVATIONS

USER TOOLS

ABOUT US